Energy Center, Louisiana
Current Conditions -  °F | °C
As of 9:53 PM on Monday 22 Dec 2014 (Local Time) from KLFT Reporting Station
Haze Haze  
Wind Chill: 19°   Ceiling: 300
Heat Index: 19°   Visibility: 6mi
Dew Point: 18°   Wind: 8mph
Humidity: 93%   Direction: 190°S
Pressure: 29.7"   Gusts: NA
Location:  30.2247°N, 92.0198°W
Report Text: KLFT 230353Z AUTO 19007KT 6SM BR OVC003 19/18 A2970 RMK AO2 SLP058 T01890178
Loading
Personal Weather Stations






























Interactive Weather Map New forecast layout! Learn more

10-Day Weather Forecast

Advertisements
Track Severe Weather on mobile